createdAt,value
2019-05-10T00:00:51.238Z,20.37
2019-05-10T00:05:58.374Z,23.57
2019-05-10T00:11:02.971Z,27.00
2019-05-10T00:16:07.931Z,20.00
2019-05-10T00:21:14.120Z,23.25
2019-05-10T00:26:20.939Z,17.75
2019-05-10T00:31:26.296Z,18.25
2019-05-10T00:36:32.471Z,29.25
2019-05-10T00:41:38.067Z,17.57
2019-05-10T00:46:43.600Z,21.14
2019-05-10T00:51:50.763Z,16.22
2019-05-10T00:56:53.715Z,18.00
2019-05-10T01:01:59.020Z,11.86
2019-05-10T01:07:02.886Z,13.50
2019-05-10T01:12:09.109Z,17.57
2019-05-10T01:17:13.615Z,16.71
2019-05-10T01:22:18.343Z,18.29
2019-05-10T01:27:22.097Z,18.25
2019-05-10T01:32:28.756Z,16.37
2019-05-10T01:37:33.999Z,12.00
2019-05-10T01:42:41.731Z,13.67
2019-05-10T01:47:47.677Z,12.00
2019-05-10T01:52:54.232Z,13.29
2019-05-10T01:57:58.252Z,10.67
2019-05-10T02:03:04.781Z,14.71
2019-05-10T02:08:11.655Z,16.12
2019-05-10T02:13:18.737Z,9.83
2019-05-10T02:18:22.540Z,11.67
2019-05-10T02:23:25.986Z,16.75
2019-05-10T02:28:30.338Z,13.14
2019-05-10T02:33:35.916Z,26.62
2019-05-10T02:38:41.180Z,12.00
2019-05-10T02:43:47.349Z,16.75
2019-05-10T02:48:53.335Z,24.14
2019-05-10T02:53:59.454Z,12.29
2019-05-10T02:59:07.230Z,9.00
2019-05-10T03:04:15.028Z,11.33
2019-05-10T03:09:20.865Z,10.83
2019-05-10T03:14:28.601Z,14.71
2019-05-10T03:19:32.740Z,17.00
2019-05-10T03:24:39.689Z,20.57
2019-05-10T03:29:44.347Z,14.75
2019-05-10T03:34:48.957Z,14.29
2019-05-10T03:39:55.024Z,17.43
2019-05-10T03:44:59.129Z,18.00
2019-05-10T03:50:06.351Z,14.29
2019-05-10T03:55:09.643Z,17.00
2019-05-10T04:00:14.915Z,19.00
2019-05-10T04:05:21.239Z,16.50
2019-05-10T04:10:27.250Z,14.00
2019-05-10T04:15:34.008Z,19.12
2019-05-10T04:20:40.508Z,25.50
2019-05-10T04:25:46.430Z,17.71
2019-05-10T04:30:52.936Z,17.75
2019-05-10T04:36:01.357Z,18.00
2019-05-10T04:41:06.192Z,14.29
2019-05-10T04:46:11.753Z,15.75
2019-05-10T04:51:14.991Z,14.00
2019-05-10T04:56:21.300Z,15.25
2019-05-10T05:01:24.397Z,16.33
2019-05-10T05:06:30.057Z,15.43
2019-05-10T05:11:34.836Z,13.29
2019-05-10T05:16:43.762Z,15.00
2019-05-10T05:21:51.187Z,14.00
2019-05-10T05:26:54.324Z,15.67
2019-05-10T05:32:03.631Z,10.17
2019-05-10T05:37:08.562Z,14.43
2019-05-10T05:42:12.113Z,15.00
2019-05-10T05:47:18.259Z,12.00
2019-05-10T05:52:21.068Z,15.00
2019-05-10T05:57:29.739Z,14.57
2019-05-10T06:02:43.944Z,13.00
2019-05-10T06:07:41.080Z,13.00
2019-05-10T06:12:50.442Z,16.87
2019-05-10T06:17:57.034Z,11.17
2019-05-10T06:23:06.987Z,14.86
2019-05-10T06:28:25.631Z,22.43
2019-05-10T06:33:18.174Z,4.83
2019-05-10T06:38:25.894Z,10.33
2019-05-10T06:43:31.046Z,11.57
2019-05-10T06:48:34.675Z,6.17
2019-05-10T06:53:51.030Z,10.17
2019-05-10T06:58:49.459Z,27.13
2019-05-10T07:03:55.498Z,18.00
2019-05-10T07:09:00.388Z,15.29
2019-05-10T07:14:05.838Z,12.14
2019-05-10T07:19:10.403Z,9.00
2019-05-10T07:24:18.150Z,10.00
2019-05-10T07:29:29.933Z,10.50
2019-05-10T07:34:29.991Z,11.00
2019-05-10T07:39:33.624Z,8.00
2019-05-10T07:44:41.528Z,15.71
2019-05-10T07:49:43.514Z,15.75
2019-05-10T07:54:54.799Z,9.67
2019-05-10T08:00:03.462Z,10.67
2019-05-10T08:05:10.779Z,14.00
2019-05-10T08:10:12.446Z,14.29
2019-05-10T08:15:19.341Z,9.00
2019-05-10T08:20:36.504Z,14.29
2019-05-10T08:25:39.595Z,10.17
2019-05-10T08:30:50.802Z,11.00
2019-05-10T08:35:52.396Z,16.71
2019-05-10T08:40:58.496Z,12.71
2019-05-10T08:46:03.863Z,13.14
2019-05-10T08:51:08.376Z,15.00
2019-05-10T08:56:20.847Z,11.00
2019-05-10T09:01:29.640Z,13.14
2019-05-10T09:06:26.569Z,12.00
2019-05-10T09:11:32.644Z,9.67
2019-05-10T09:16:43.501Z,22.00
2019-05-10T09:21:49.225Z,13.71
2019-05-10T09:26:52.768Z,12.00
2019-05-10T09:31:53.811Z,7.00
2019-05-10T09:37:02.661Z,10.86
2019-05-10T09:42:09.943Z,8.17
2019-05-10T09:47:12.746Z,8.83
2019-05-10T09:52:18.641Z,8.67
2019-05-10T09:57:23.722Z,10.83
2019-05-10T10:02:33.784Z,9.00
2019-05-10T10:07:37.812Z,9.00
2019-05-10T10:12:43.174Z,11.00
2019-05-10T10:17:47.828Z,7.17
2019-05-10T10:22:55.823Z,10.50
2019-05-10T10:27:58.811Z,5.33
2019-05-10T10:33:05.634Z,8.00
2019-05-10T10:38:08.205Z,21.25
2019-05-10T10:43:12.194Z,11.50
2019-05-10T10:48:17.984Z,14.43
2019-05-10T10:53:23.310Z,11.43
2019-05-10T10:58:30.389Z,9.33
2019-05-10T11:03:37.751Z,13.00
2019-05-10T11:08:41.635Z,8.00
2019-05-10T11:13:57.345Z,12.29
2019-05-10T11:18:55.211Z,9.50
2019-05-10T11:24:02.462Z,11.50
2019-05-10T11:29:07.158Z,11.29
2019-05-10T11:34:11.938Z,15.00
2019-05-10T11:39:26.127Z,17.43
2019-05-10T11:44:26.001Z,16.43
2019-05-10T11:49:30.807Z,24.75
2019-05-10T11:54:37.892Z,29.29
2019-05-10T11:59:41.889Z,11.17
2019-05-10T12:04:47.570Z,12.86
2019-05-10T12:10:03.032Z,20.30
2019-05-10T12:15:04.417Z,9.00
2019-05-10T12:20:12.541Z,16.29
2019-05-10T12:25:36.056Z,10.17
2019-05-10T12:30:22.716Z,15.14
2019-05-10T12:35:35.559Z,10.83
2019-05-10T12:40:37.587Z,6.80
2019-05-10T12:45:41.919Z,6.67
2019-05-10T12:50:45.391Z,12.33
2019-05-10T12:55:50.014Z,7.00
2019-05-10T13:00:54.802Z,5.00
2019-05-10T13:05:58.570Z,6.00
2019-05-10T13:11:03.231Z,6.00
2019-05-10T13:16:09.508Z,6.00
2019-05-10T13:21:19.735Z,8.00
2019-05-10T13:26:17.424Z,4.00
2019-05-10T13:31:24.557Z,10.43
2019-05-10T13:36:36.904Z,7.00
2019-05-10T13:41:39.588Z,10.17
2019-05-10T13:46:44.304Z,9.00
2019-05-10T13:51:51.413Z,8.78
2019-05-10T13:56:55.144Z,6.67
2019-05-10T14:01:58.865Z,5.00
2019-05-10T14:07:02.873Z,5.00
2019-05-10T14:12:07.241Z,8.67
2019-05-10T14:17:11.122Z,10.33
2019-05-10T14:22:15.843Z,7.67
2019-05-10T14:27:19.913Z,10.67
2019-05-10T14:32:27.938Z,14.00
2019-05-10T14:37:34.584Z,13.71
2019-05-10T14:42:40.221Z,23.43
2019-05-10T14:47:50.175Z,16.00
2019-05-10T14:52:53.337Z,11.33
2019-05-10T14:57:58.000Z,12.71
2019-05-10T15:03:03.834Z,13.00
2019-05-10T15:08:10.760Z,20.37
2019-05-10T15:13:19.657Z,18.57
2019-05-10T15:18:26.277Z,9.30
2019-05-10T15:23:30.863Z,10.33
2019-05-10T15:28:40.774Z,10.50
2019-05-10T15:33:45.064Z,15.00
2019-05-10T15:38:51.900Z,10.00
2019-05-10T15:43:55.847Z,11.86
2019-05-10T15:49:00.427Z,10.00
2019-05-10T15:54:05.155Z,19.33
2019-05-10T15:59:12.708Z,8.40
2019-05-10T16:04:14.776Z,7.20
2019-05-10T16:09:19.371Z,5.00
2019-05-10T16:14:23.816Z,9.33
2019-05-10T16:19:27.533Z,7.17
2019-05-10T16:24:35.763Z,7.50
2019-05-10T16:29:43.586Z,14.20
2019-05-10T16:34:51.424Z,11.00
2019-05-10T16:39:55.666Z,16.67
2019-05-10T16:45:04.134Z,11.00
2019-05-10T16:50:09.388Z,12.86
2019-05-10T16:55:12.996Z,14.00
2019-05-10T17:00:18.827Z,13.43
2019-05-10T17:05:24.469Z,13.50
2019-05-10T17:10:32.993Z,23.25
2019-05-10T17:15:39.929Z,13.00
2019-05-10T17:20:45.359Z,10.00
2019-05-10T17:25:53.513Z,13.00
2019-05-10T17:30:59.977Z,26.75
2019-05-10T17:36:08.334Z,7.67
2019-05-10T17:41:10.552Z,13.29
2019-05-10T17:46:18.901Z,12.29
2019-05-10T17:51:20.881Z,13.00
2019-05-10T17:56:32.565Z,16.25
2019-05-10T18:01:34.976Z,21.00
2019-05-10T18:06:38.839Z,24.25
2019-05-10T18:11:44.995Z,17.43
2019-05-10T18:16:50.163Z,10.17
2019-05-10T18:22:00.748Z,20.86
2019-05-10T18:27:02.546Z,15.00
2019-05-10T18:32:11.332Z,15.43
2019-05-10T18:37:21.828Z,24.25
2019-05-10T18:42:27.767Z,23.38
2019-05-10T18:47:33.317Z,21.12
2019-05-10T18:52:37.653Z,17.00
2019-05-10T18:57:45.296Z,20.71
2019-05-10T19:02:49.706Z,17.00
2019-05-10T19:08:02.970Z,19.00
2019-05-10T19:13:05.652Z,17.12
2019-05-10T19:18:09.102Z,21.00
2019-05-10T19:23:19.150Z,23.50
2019-05-10T19:28:26.924Z,29.22
2019-05-10T19:33:36.303Z,20.14
2019-05-10T19:38:35.956Z,20.00
2019-05-10T19:43:42.137Z,24.25
2019-05-10T19:48:46.340Z,22.00
2019-05-10T19:53:52.242Z,24.87
2019-05-10T19:59:05.343Z,24.63
2019-05-10T20:04:09.519Z,21.87
2019-05-10T20:09:14.924Z,21.00
2019-05-10T20:14:22.114Z,31.14
2019-05-10T20:19:27.763Z,28.38
2019-05-10T20:24:33.430Z,29.20
2019-05-10T20:29:37.589Z,27.50
2019-05-10T20:34:42.679Z,28.86
2019-05-10T20:39:52.005Z,30.00
2019-05-10T20:45:07.714Z,29.25
2019-05-10T20:50:03.526Z,32.00
2019-05-10T20:55:10.092Z,33.63
2019-05-10T21:00:14.585Z,34.00
2019-05-10T21:05:20.778Z,32.00
2019-05-10T21:10:31.775Z,35.44
2019-05-10T21:15:38.059Z,37.50
2019-05-10T21:20:45.056Z,32.11
2019-05-10T21:25:53.632Z,37.75
2019-05-10T21:31:02.903Z,33.13
2019-05-10T21:36:12.181Z,33.00
2019-05-10T21:41:18.266Z,33.50
2019-05-10T21:46:23.245Z,33.50
2019-05-10T21:51:32.658Z,34.44
2019-05-10T21:56:42.226Z,36.00
2019-05-10T22:01:51.516Z,33.25
2019-05-10T22:06:55.919Z,36.00
2019-05-10T22:12:03.073Z,34.63
2019-05-10T22:17:09.199Z,36.38
2019-05-10T22:22:16.720Z,34.63
2019-05-10T22:27:25.898Z,37.25
2019-05-10T22:32:36.870Z,34.33
2019-05-10T22:37:43.800Z,33.00
2019-05-10T22:42:48.056Z,33.00
2019-05-10T22:47:52.349Z,36.00
2019-05-10T22:52:59.217Z,34.50
2019-05-10T22:58:06.670Z,37.38
2019-05-10T23:03:15.989Z,33.13
2019-05-10T23:08:20.274Z,35.00
2019-05-10T23:13:27.030Z,36.88
2019-05-10T23:18:36.194Z,32.88
2019-05-10T23:23:42.230Z,34.25
2019-05-10T23:28:48.957Z,36.00
2019-05-10T23:33:59.023Z,32.44
2019-05-10T23:39:08.222Z,34.38
2019-05-10T23:44:15.585Z,30.62
2019-05-10T23:49:24.876Z,34.63
2019-05-10T23:54:33.861Z,31.00
2019-05-10T23:59:43.092Z,36.00
